sensor_id;sensor_type;location;lat;lon;timestamp;P1;durP1;ratioP1;P2;durP2;ratioP2
10114;SDS011;5097;43.260;27.812;2022-08-03T00:00:49;3.80;;;3.55;;
10114;SDS011;5097;43.260;27.812;2022-08-03T00:03:33;3.40;;;3.15;;
10114;SDS011;5097;43.260;27.812;2022-08-03T00:06:17;3.92;;;3.63;;
10114;SDS011;5097;43.260;27.812;2022-08-03T00:09:02;4.10;;;3.75;;
10114;SDS011;5097;43.260;27.812;2022-08-03T00:11:47;3.78;;;3.47;;
10114;SDS011;5097;43.260;27.812;2022-08-03T00:14:32;4.25;;;3.95;;
10114;SDS011;5097;43.260;27.812;2022-08-03T00:17:16;4.05;;;3.75;;
10114;SDS011;5097;43.260;27.812;2022-08-03T00:20:00;4.45;;;4.10;;
10114;SDS011;5097;43.260;27.812;2022-08-03T00:22:44;4.70;;;4.30;;
10114;SDS011;5097;43.260;27.812;2022-08-03T00:25:29;4.82;;;4.43;;
10114;SDS011;5097;43.260;27.812;2022-08-03T00:28:13;5.72;;;5.22;;
10114;SDS011;5097;43.260;27.812;2022-08-03T00:30:57;5.82;;;5.32;;
10114;SDS011;5097;43.260;27.812;2022-08-03T00:33:41;6.80;;;5.28;;
10114;SDS011;5097;43.260;27.812;2022-08-03T00:36:40;4.70;;;4.22;;
10114;SDS011;5097;43.260;27.812;2022-08-03T00:39:24;4.88;;;4.38;;
10114;SDS011;5097;43.260;27.812;2022-08-03T00:42:10;4.93;;;4.43;;
10114;SDS011;5097;43.260;27.812;2022-08-03T00:44:54;3.95;;;3.65;;
10114;SDS011;5097;43.260;27.812;2022-08-03T00:47:38;3.53;;;3.22;;
10114;SDS011;5097;43.260;27.812;2022-08-03T00:50:23;3.90;;;3.60;;
10114;SDS011;5097;43.260;27.812;2022-08-03T00:53:09;5.07;;;4.57;;
10114;SDS011;5097;43.260;27.812;2022-08-03T00:55:54;4.50;;;4.10;;
10114;SDS011;5097;43.260;27.812;2022-08-03T00:58:40;5.10;;;4.40;;
10114;SDS011;5097;43.260;27.812;2022-08-03T01:01:27;4.30;;;4.00;;
10114;SDS011;5097;43.260;27.812;2022-08-03T01:04:13;4.95;;;4.45;;
10114;SDS011;5097;43.260;27.812;2022-08-03T01:07:00;4.78;;;4.07;;
10114;SDS011;5097;43.260;27.812;2022-08-03T01:09:53;4.32;;;4.03;;
10114;SDS011;5097;43.260;27.812;2022-08-03T01:12:47;4.80;;;4.35;;
10114;SDS011;5097;43.260;27.812;2022-08-03T01:15:42;4.28;;;3.97;;
10114;SDS011;5097;43.260;27.812;2022-08-03T01:18:35;4.75;;;4.32;;
10114;SDS011;5097;43.260;27.812;2022-08-03T01:21:25;4.60;;;4.20;;
10114;SDS011;5097;43.260;27.812;2022-08-03T01:24:15;4.85;;;4.20;;
10114;SDS011;5097;43.260;27.812;2022-08-03T01:27:16;6.40;;;4.13;;
10114;SDS011;5097;43.260;27.812;2022-08-03T01:30:05;4.10;;;3.83;;
10114;SDS011;5097;43.260;27.812;2022-08-03T01:32:53;4.38;;;4.07;;
10114;SDS011;5097;43.260;27.812;2022-08-03T01:35:45;4.18;;;3.88;;
10114;SDS011;5097;43.260;27.812;2022-08-03T01:38:33;4.45;;;4.15;;
10114;SDS011;5097;43.260;27.812;2022-08-03T01:41:23;4.85;;;4.43;;
10114;SDS011;5097;43.260;27.812;2022-08-03T01:44:11;4.55;;;4.15;;
10114;SDS011;5097;43.260;27.812;2022-08-03T01:47:13;4.95;;;4.45;;
10114;SDS011;5097;43.260;27.812;2022-08-03T01:49:59;4.10;;;3.72;;
10114;SDS011;5097;43.260;27.812;2022-08-03T01:52:44;3.53;;;3.28;;
10114;SDS011;5097;43.260;27.812;2022-08-03T01:55:30;4.05;;;3.65;;
10114;SDS011;5097;43.260;27.812;2022-08-03T01:58:17;4.22;;;3.83;;
10114;SDS011;5097;43.260;27.812;2022-08-03T02:01:04;4.32;;;3.92;;
10114;SDS011;5097;43.260;27.812;2022-08-03T02:03:53;4.20;;;3.83;;
10114;SDS011;5097;43.260;27.812;2022-08-03T02:06:42;4.13;;;3.50;;
10114;SDS011;5097;43.260;27.812;2022-08-03T02:09:46;5.78;;;4.00;;
10114;SDS011;5097;43.260;27.812;2022-08-03T02:12:33;3.88;;;3.58;;
10114;SDS011;5097;43.260;27.812;2022-08-03T02:15:19;4.15;;;3.80;;
10114;SDS011;5097;43.260;27.812;2022-08-03T02:18:06;4.88;;;3.70;;
10114;SDS011;5097;43.260;27.812;2022-08-03T02:20:53;3.97;;;3.60;;
10114;SDS011;5097;43.260;27.812;2022-08-03T02:23:38;4.20;;;3.80;;
10114;SDS011;5097;43.260;27.812;2022-08-03T02:26:23;4.13;;;3.72;;
10114;SDS011;5097;43.260;27.812;2022-08-03T02:29:15;3.75;;;3.55;;
10114;SDS011;5097;43.260;27.812;2022-08-03T02:32:23;4.07;;;3.78;;
10114;SDS011;5097;43.260;27.812;2022-08-03T02:35:12;4.72;;;3.78;;
10114;SDS011;5097;43.260;27.812;2022-08-03T02:38:03;4.03;;;3.70;;
10114;SDS011;5097;43.260;27.812;2022-08-03T02:40:49;4.45;;;4.05;;
10114;SDS011;5097;43.260;27.812;2022-08-03T02:43:35;7.72;;;6.88;;
10114;SDS011;5097;43.260;27.812;2022-08-03T02:46:43;5.50;;;4.80;;
10114;SDS011;5097;43.260;27.812;2022-08-03T02:49:30;7.10;;;5.20;;
10114;SDS011;5097;43.260;27.812;2022-08-03T02:52:31;5.03;;;4.63;;
10114;SDS011;5097;43.260;27.812;2022-08-03T02:55:19;4.40;;;4.10;;
10114;SDS011;5097;43.260;27.812;2022-08-03T02:58:04;5.18;;;4.78;;
10114;SDS011;5097;43.260;27.812;2022-08-03T03:00:50;6.18;;;4.00;;
10114;SDS011;5097;43.260;27.812;2022-08-03T03:03:35;5.05;;;4.65;;
10114;SDS011;5097;43.260;27.812;2022-08-03T03:06:26;4.63;;;4.32;;
10114;SDS011;5097;43.260;27.812;2022-08-03T03:09:11;4.70;;;3.97;;
10114;SDS011;5097;43.260;27.812;2022-08-03T03:11:57;7.07;;;6.38;;
10114;SDS011;5097;43.260;27.812;2022-08-03T03:14:41;3.83;;;3.53;;
10114;SDS011;5097;43.260;27.812;2022-08-03T03:17:25;4.55;;;3.28;;
10114;SDS011;5097;43.260;27.812;2022-08-03T03:20:10;3.95;;;3.50;;
10114;SDS011;5097;43.260;27.812;2022-08-03T03:22:55;3.83;;;3.50;;
10114;SDS011;5097;43.260;27.812;2022-08-03T03:25:41;3.95;;;3.58;;
10114;SDS011;5097;43.260;27.812;2022-08-03T03:28:27;3.67;;;3.38;;
10114;SDS011;5097;43.260;27.812;2022-08-03T03:31:12;3.58;;;3.30;;
10114;SDS011;5097;43.260;27.812;2022-08-03T03:33:57;4.15;;;3.75;;
10114;SDS011;5097;43.260;27.812;2022-08-03T03:36:41;4.25;;;3.95;;
10114;SDS011;5097;43.260;27.812;2022-08-03T03:39:25;4.35;;;3.95;;
10114;SDS011;5097;43.260;27.812;2022-08-03T03:42:09;3.85;;;3.55;;
10114;SDS011;5097;43.260;27.812;2022-08-03T03:44:55;4.40;;;4.03;;
10114;SDS011;5097;43.260;27.812;2022-08-03T03:47:40;3.85;;;3.55;;
10114;SDS011;5097;43.260;27.812;2022-08-03T03:50:24;4.20;;;3.90;;
10114;SDS011;5097;43.260;27.812;2022-08-03T03:53:10;4.15;;;3.85;;
10114;SDS011;5097;43.260;27.812;2022-08-03T03:55:54;4.03;;;3.72;;
10114;SDS011;5097;43.260;27.812;2022-08-03T03:58:44;3.67;;;3.47;;
10114;SDS011;5097;43.260;27.812;2022-08-03T04:01:29;4.68;;;3.85;;
10114;SDS011;5097;43.260;27.812;2022-08-03T04:04:14;6.05;;;4.07;;
10114;SDS011;5097;43.260;27.812;2022-08-03T04:07:14;7.85;;;4.05;;
10114;SDS011;5097;43.260;27.812;2022-08-03T04:10:16;4.00;;;3.58;;
10114;SDS011;5097;43.260;27.812;2022-08-03T04:13:21;3.85;;;3.60;;
10114;SDS011;5097;43.260;27.812;2022-08-03T04:16:07;4.05;;;3.75;;
10114;SDS011;5097;43.260;27.812;2022-08-03T04:18:58;5.10;;;3.50;;
10114;SDS011;5097;43.260;27.812;2022-08-03T04:21:47;3.97;;;3.67;;
10114;SDS011;5097;43.260;27.812;2022-08-03T04:24:39;4.05;;;3.75;;
10114;SDS011;5097;43.260;27.812;2022-08-03T04:27:27;3.78;;;3.47;;
10114;SDS011;5097;43.260;27.812;2022-08-03T04:30:15;4.03;;;3.72;;
10114;SDS011;5097;43.260;27.812;2022-08-03T04:32:59;3.75;;;3.45;;
10114;SDS011;5097;43.260;27.812;2022-08-03T04:35:46;3.97;;;3.15;;
10114;SDS011;5097;43.260;27.812;2022-08-03T04:38:51;3.42;;;3.17;;
10114;SDS011;5097;43.260;27.812;2022-08-03T04:41:38;3.83;;;3.53;;
10114;SDS011;5097;43.260;27.812;2022-08-03T04:44:45;3.35;;;3.15;;
10114;SDS011;5097;43.260;27.812;2022-08-03T04:47:31;4.15;;;3.75;;
10114;SDS011;5097;43.260;27.812;2022-08-03T04:50:16;4.28;;;3.88;;
10114;SDS011;5097;43.260;27.812;2022-08-03T04:53:19;3.38;;;3.17;;
10114;SDS011;5097;43.260;27.812;2022-08-03T04:56:04;3.70;;;3.40;;
10114;SDS011;5097;43.260;27.812;2022-08-03T04:58:49;4.15;;;3.83;;
10114;SDS011;5097;43.260;27.812;2022-08-03T05:01:33;3.75;;;3.13;;
10114;SDS011;5097;43.260;27.812;2022-08-03T05:04:17;3.67;;;3.38;;
10114;SDS011;5097;43.260;27.812;2022-08-03T05:07:01;3.75;;;3.30;;
10114;SDS011;5097;43.260;27.812;2022-08-03T05:09:55;3.05;;;2.83;;
10114;SDS011;5097;43.260;27.812;2022-08-03T05:12:45;5.78;;;4.53;;
10114;SDS011;5097;43.260;27.812;2022-08-03T05:15:32;3.25;;;3.05;;
10114;SDS011;5097;43.260;27.812;2022-08-03T05:18:24;3.28;;;2.97;;
10114;SDS011;5097;43.260;27.812;2022-08-03T05:21:08;2.25;;;2.15;;
10114;SDS011;5097;43.260;27.812;2022-08-03T05:23:55;2.75;;;2.35;;
10114;SDS011;5097;43.260;27.812;2022-08-03T05:26:40;4.10;;;2.03;;
10114;SDS011;5097;43.260;27.812;2022-08-03T05:29:24;2.28;;;2.17;;
10114;SDS011;5097;43.260;27.812;2022-08-03T05:32:08;2.30;;;2.10;;
10114;SDS011;5097;43.260;27.812;2022-08-03T05:34:51;2.58;;;2.30;;
10114;SDS011;5097;43.260;27.812;2022-08-03T05:37:35;2.25;;;2.05;;
10114;SDS011;5097;43.260;27.812;2022-08-03T05:40:35;2.10;;;2.00;;
10114;SDS011;5097;43.260;27.812;2022-08-03T05:43:29;2.20;;;2.10;;
10114;SDS011;5097;43.260;27.812;2022-08-03T05:46:17;2.20;;;2.10;;
10114;SDS011;5097;43.260;27.812;2022-08-03T05:49:01;2.75;;;2.55;;
10114;SDS011;5097;43.260;27.812;2022-08-03T05:51:45;2.60;;;2.40;;
10114;SDS011;5097;43.260;27.812;2022-08-03T05:54:41;3.85;;;2.10;;
10114;SDS011;5097;43.260;27.812;2022-08-03T05:57:38;1.98;;;1.88;;
10114;SDS011;5097;43.260;27.812;2022-08-03T06:00:27;2.17;;;2.08;;
10114;SDS011;5097;43.260;27.812;2022-08-03T06:03:12;2.35;;;2.25;;
10114;SDS011;5097;43.260;27.812;2022-08-03T06:05:56;1.80;;;1.70;;
10114;SDS011;5097;43.260;27.812;2022-08-03T06:08:42;2.10;;;1.88;;
10114;SDS011;5097;43.260;27.812;2022-08-03T06:11:27;2.45;;;2.25;;
10114;SDS011;5097;43.260;27.812;2022-08-03T06:14:11;2.30;;;2.10;;
10114;SDS011;5097;43.260;27.812;2022-08-03T06:16:56;1.85;;;1.75;;
10114;SDS011;5097;43.260;27.812;2022-08-03T06:19:40;2.65;;;2.20;;
10114;SDS011;5097;43.260;27.812;2022-08-03T06:22:24;2.38;;;2.05;;
10114;SDS011;5097;43.260;27.812;2022-08-03T06:25:08;2.47;;;2.28;;
10114;SDS011;5097;43.260;27.812;2022-08-03T06:27:55;2.00;;;1.90;;
10114;SDS011;5097;43.260;27.812;2022-08-03T06:30:40;5.35;;;1.88;;
10114;SDS011;5097;43.260;27.812;2022-08-03T06:33:26;2.95;;;2.42;;
10114;SDS011;5097;43.260;27.812;2022-08-03T06:36:30;1.83;;;1.73;;
10114;SDS011;5097;43.260;27.812;2022-08-03T06:39:13;1.88;;;1.77;;
10114;SDS011;5097;43.260;27.812;2022-08-03T06:41:58;2.00;;;1.90;;
10114;SDS011;5097;43.260;27.812;2022-08-03T06:44:42;4.18;;;1.92;;
10114;SDS011;5097;43.260;27.812;2022-08-03T06:47:26;1.65;;;1.55;;
10114;SDS011;5097;43.260;27.812;2022-08-03T06:50:13;2.17;;;1.98;;
10114;SDS011;5097;43.260;27.812;2022-08-03T06:53:00;3.08;;;2.17;;
10114;SDS011;5097;43.260;27.812;2022-08-03T06:55:44;2.55;;;1.90;;
10114;SDS011;5097;43.260;27.812;2022-08-03T06:58:35;2.78;;;2.17;;
10114;SDS011;5097;43.260;27.812;2022-08-03T07:01:19;2.22;;;1.98;;
10114;SDS011;5097;43.260;27.812;2022-08-03T07:04:03;2.50;;;1.70;;
10114;SDS011;5097;43.260;27.812;2022-08-03T07:06:49;1.70;;;1.55;;
10114;SDS011;5097;43.260;27.812;2022-08-03T07:09:33;2.80;;;1.80;;
10114;SDS011;5097;43.260;27.812;2022-08-03T07:12:17;2.25;;;1.50;;
10114;SDS011;5097;43.260;27.812;2022-08-03T07:15:02;1.92;;;1.83;;
10114;SDS011;5097;43.260;27.812;2022-08-03T07:17:47;1.90;;;1.80;;
10114;SDS011;5097;43.260;27.812;2022-08-03T07:20:31;2.30;;;2.10;;
10114;SDS011;5097;43.260;27.812;2022-08-03T07:23:16;2.00;;;1.90;;
10114;SDS011;5097;43.260;27.812;2022-08-03T07:26:00;3.42;;;2.20;;
10114;SDS011;5097;43.260;27.812;2022-08-03T07:28:44;3.80;;;2.15;;
10114;SDS011;5097;43.260;27.812;2022-08-03T07:31:28;1.85;;;1.75;;
10114;SDS011;5097;43.260;27.812;2022-08-03T07:34:15;2.35;;;2.13;;
10114;SDS011;5097;43.260;27.812;2022-08-03T07:36:59;1.60;;;1.50;;
10114;SDS011;5097;43.260;27.812;2022-08-03T07:39:44;1.83;;;1.73;;
10114;SDS011;5097;43.260;27.812;2022-08-03T07:42:28;2.60;;;1.50;;
10114;SDS011;5097;43.260;27.812;2022-08-03T07:45:13;2.05;;;1.92;;
10114;SDS011;5097;43.260;27.812;2022-08-03T07:47:58;1.83;;;1.73;;
10114;SDS011;5097;43.260;27.812;2022-08-03T07:50:42;1.75;;;1.65;;
10114;SDS011;5097;43.260;27.812;2022-08-03T07:53:26;2.28;;;2.10;;
10114;SDS011;5097;43.260;27.812;2022-08-03T07:56:11;2.28;;;1.50;;
10114;SDS011;5097;43.260;27.812;2022-08-03T07:58:55;1.90;;;1.80;;
10114;SDS011;5097;43.260;27.812;2022-08-03T08:01:39;2.75;;;1.33;;
10114;SDS011;5097;43.260;27.812;2022-08-03T08:04:23;2.60;;;2.17;;
10114;SDS011;5097;43.260;27.812;2022-08-03T08:07:07;1.88;;;1.77;;
10114;SDS011;5097;43.260;27.812;2022-08-03T08:09:51;2.42;;;2.17;;
10114;SDS011;5097;43.260;27.812;2022-08-03T08:12:36;1.65;;;1.55;;
10114;SDS011;5097;43.260;27.812;2022-08-03T08:15:21;2.55;;;2.33;;
10114;SDS011;5097;43.260;27.812;2022-08-03T08:18:05;2.03;;;1.85;;
10114;SDS011;5097;43.260;27.812;2022-08-03T08:20:49;1.90;;;1.80;;
10114;SDS011;5097;43.260;27.812;2022-08-03T08:23:33;1.80;;;1.60;;
10114;SDS011;5097;43.260;27.812;2022-08-03T08:26:25;1.65;;;1.55;;
10114;SDS011;5097;43.260;27.812;2022-08-03T08:29:10;1.75;;;1.65;;
10114;SDS011;5097;43.260;27.812;2022-08-03T08:31:54;1.80;;;1.70;;
10114;SDS011;5097;43.260;27.812;2022-08-03T08:34:39;1.88;;;1.77;;
10114;SDS011;5097;43.260;27.812;2022-08-03T08:37:22;2.58;;;1.75;;
10114;SDS011;5097;43.260;27.812;2022-08-03T08:40:07;1.77;;;1.67;;
10114;SDS011;5097;43.260;27.812;2022-08-03T08:42:52;1.95;;;1.85;;
10114;SDS011;5097;43.260;27.812;2022-08-03T08:45:41;1.90;;;1.70;;
10114;SDS011;5097;43.260;27.812;2022-08-03T08:48:27;1.15;;;1.10;;
10114;SDS011;5097;43.260;27.812;2022-08-03T08:51:13;2.30;;;1.50;;
10114;SDS011;5097;43.260;27.812;2022-08-03T08:54:00;1.98;;;1.77;;
10114;SDS011;5097;43.260;27.812;2022-08-03T08:56:45;1.45;;;1.35;;
10114;SDS011;5097;43.260;27.812;2022-08-03T08:59:31;1.85;;;1.75;;
10114;SDS011;5097;43.260;27.812;2022-08-03T09:02:31;1.80;;;1.70;;
10114;SDS011;5097;43.260;27.812;2022-08-03T09:05:15;2.30;;;2.10;;
10114;SDS011;5097;43.260;27.812;2022-08-03T09:08:22;1.70;;;1.60;;
10114;SDS011;5097;43.260;27.812;2022-08-03T09:11:06;2.15;;;1.50;;
10114;SDS011;5097;43.260;27.812;2022-08-03T09:13:53;1.45;;;1.30;;
10114;SDS011;5097;43.260;27.812;2022-08-03T09:16:37;2.22;;;1.02;;
10114;SDS011;5097;43.260;27.812;2022-08-03T09:19:22;1.77;;;1.73;;
10114;SDS011;5097;43.260;27.812;2022-08-03T09:22:07;1.88;;;1.77;;
10114;SDS011;5097;43.260;27.812;2022-08-03T09:24:54;1.13;;;1.13;;
10114;SDS011;5097;43.260;27.812;2022-08-03T09:28:06;1.52;;;1.42;;
10114;SDS011;5097;43.260;27.812;2022-08-03T09:30:56;2.72;;;1.40;;
10114;SDS011;5097;43.260;27.812;2022-08-03T09:33:45;1.25;;;1.20;;
10114;SDS011;5097;43.260;27.812;2022-08-03T09:36:35;2.70;;;1.55;;
10114;SDS011;5097;43.260;27.812;2022-08-03T09:39:20;1.70;;;1.60;;
10114;SDS011;5097;43.260;27.812;2022-08-03T09:42:23;2.03;;;1.58;;
10114;SDS011;5097;43.260;27.812;2022-08-03T09:45:08;1.83;;;1.60;;
10114;SDS011;5097;43.260;27.812;2022-08-03T09:48:22;2.15;;;1.95;;
10114;SDS011;5097;43.260;27.812;2022-08-03T09:51:07;1.73;;;1.63;;
10114;SDS011;5097;43.260;27.812;2022-08-03T09:54:12;1.67;;;1.58;;
10114;SDS011;5097;43.260;27.812;2022-08-03T09:57:07;2.33;;;1.65;;
10114;SDS011;5097;43.260;27.812;2022-08-03T10:00:06;1.40;;;1.30;;
10114;SDS011;5097;43.260;27.812;2022-08-03T10:02:53;2.80;;;2.65;;
10114;SDS011;5097;43.260;27.812;2022-08-03T10:05:46;1.60;;;1.50;;
10114;SDS011;5097;43.260;27.812;2022-08-03T10:08:30;1.55;;;1.45;;
10114;SDS011;5097;43.260;27.812;2022-08-03T10:11:17;1.90;;;1.80;;
10114;SDS011;5097;43.260;27.812;2022-08-03T10:14:12;1.70;;;1.60;;
10114;SDS011;5097;43.260;27.812;2022-08-03T10:17:00;1.77;;;1.67;;
10114;SDS011;5097;43.260;27.812;2022-08-03T10:19:44;2.97;;;1.50;;
10114;SDS011;5097;43.260;27.812;2022-08-03T10:22:30;1.75;;;1.65;;
10114;SDS011;5097;43.260;27.812;2022-08-03T10:25:16;3.03;;;1.38;;
10114;SDS011;5097;43.260;27.812;2022-08-03T10:28:02;1.90;;;1.60;;
10114;SDS011;5097;43.260;27.812;2022-08-03T10:30:50;1.30;;;1.30;;
10114;SDS011;5097;43.260;27.812;2022-08-03T10:33:36;3.63;;;1.60;;
10114;SDS011;5097;43.260;27.812;2022-08-03T10:36:33;2.78;;;1.60;;
10114;SDS011;5097;43.260;27.812;2022-08-03T10:39:20;2.10;;;1.92;;
10114;SDS011;5097;43.260;27.812;2022-08-03T10:42:06;1.50;;;1.45;;
10114;SDS011;5097;43.260;27.812;2022-08-03T10:45:01;1.73;;;1.40;;
10114;SDS011;5097;43.260;27.812;2022-08-03T10:47:47;2.00;;;1.45;;
10114;SDS011;5097;43.260;27.812;2022-08-03T10:50:32;1.98;;;1.77;;
10114;SDS011;5097;43.260;27.812;2022-08-03T10:53:16;3.25;;;1.65;;
10114;SDS011;5097;43.260;27.812;2022-08-03T10:59:57;2.38;;;1.70;;
10114;SDS011;5097;43.260;27.812;2022-08-03T11:03:03;1.90;;;1.75;;
10114;SDS011;5097;43.260;27.812;2022-08-03T11:05:49;2.47;;;2.28;;
10114;SDS011;5097;43.260;27.812;2022-08-03T11:08:35;1.27;;;1.25;;
10114;SDS011;5097;43.260;27.812;2022-08-03T11:11:25;1.20;;;1.20;;
10114;SDS011;5097;43.260;27.812;2022-08-03T11:14:11;2.33;;;1.60;;
10114;SDS011;5097;43.260;27.812;2022-08-03T11:17:06;5.20;;;1.98;;
10114;SDS011;5097;43.260;27.812;2022-08-03T11:19:55;1.90;;;1.80;;
10114;SDS011;5097;43.260;27.812;2022-08-03T11:22:46;1.67;;;1.60;;
10114;SDS011;5097;43.260;27.812;2022-08-03T11:28:49;1.92;;;1.83;;
10114;SDS011;5097;43.260;27.812;2022-08-03T11:31:45;1.30;;;1.20;;
10114;SDS011;5097;43.260;27.812;2022-08-03T11:34:34;1.48;;;1.48;;
10114;SDS011;5097;43.260;27.812;2022-08-03T11:38:09;1.90;;;1.80;;
10114;SDS011;5097;43.260;27.812;2022-08-03T11:40:53;1.88;;;1.77;;
10114;SDS011;5097;43.260;27.812;2022-08-03T11:43:43;3.90;;;1.70;;
10114;SDS011;5097;43.260;27.812;2022-08-03T11:46:28;1.65;;;1.55;;
10114;SDS011;5097;43.260;27.812;2022-08-03T11:49:20;2.15;;;1.50;;
10114;SDS011;5097;43.260;27.812;2022-08-03T11:52:07;1.85;;;1.63;;
10114;SDS011;5097;43.260;27.812;2022-08-03T11:54:51;1.80;;;1.70;;
10114;SDS011;5097;43.260;27.812;2022-08-03T11:57:38;2.65;;;1.40;;
10114;SDS011;5097;43.260;27.812;2022-08-03T12:00:42;1.70;;;1.48;;
10114;SDS011;5097;43.260;27.812;2022-08-03T12:03:30;2.55;;;1.55;;
10114;SDS011;5097;43.260;27.812;2022-08-03T12:06:16;1.70;;;1.60;;
10114;SDS011;5097;43.260;27.812;2022-08-03T12:09:02;2.40;;;1.60;;
10114;SDS011;5097;43.260;27.812;2022-08-03T12:11:57;3.53;;;1.30;;
10114;SDS011;5097;43.260;27.812;2022-08-03T12:14:45;1.50;;;1.40;;
10114;SDS011;5097;43.260;27.812;2022-08-03T12:17:33;2.25;;;1.77;;
10114;SDS011;5097;43.260;27.812;2022-08-03T12:20:19;1.77;;;1.67;;
10114;SDS011;5097;43.260;27.812;2022-08-03T12:23:16;2.40;;;1.73;;
10114;SDS011;5097;43.260;27.812;2022-08-03T12:26:02;1.90;;;1.80;;
10114;SDS011;5097;43.260;27.812;2022-08-03T12:28:48;1.73;;;1.63;;
10114;SDS011;5097;43.260;27.812;2022-08-03T12:31:32;2.22;;;2.10;;
10114;SDS011;5097;43.260;27.812;2022-08-03T12:34:18;2.17;;;2.00;;
10114;SDS011;5097;43.260;27.812;2022-08-03T12:37:03;1.80;;;1.70;;
10114;SDS011;5097;43.260;27.812;2022-08-03T12:40:08;4.88;;;2.08;;
10114;SDS011;5097;43.260;27.812;2022-08-03T12:43:04;1.73;;;1.52;;
10114;SDS011;5097;43.260;27.812;2022-08-03T12:46:09;2.00;;;1.80;;
10114;SDS011;5097;43.260;27.812;2022-08-03T12:48:58;2.25;;;2.00;;
10114;SDS011;5097;43.260;27.812;2022-08-03T12:51:57;1.85;;;1.73;;
10114;SDS011;5097;43.260;27.812;2022-08-03T12:55:05;3.65;;;1.65;;
10114;SDS011;5097;43.260;27.812;2022-08-03T12:57:51;2.25;;;1.70;;
10114;SDS011;5097;43.260;27.812;2022-08-03T13:00:35;2.25;;;2.15;;
10114;SDS011;5097;43.260;27.812;2022-08-03T13:03:23;3.40;;;1.70;;
10114;SDS011;5097;43.260;27.812;2022-08-03T13:06:23;2.33;;;2.20;;
10114;SDS011;5097;43.260;27.812;2022-08-03T13:09:07;2.45;;;2.25;;
10114;SDS011;5097;43.260;27.812;2022-08-03T13:12:06;2.30;;;2.10;;
10114;SDS011;5097;43.260;27.812;2022-08-03T13:14:51;2.67;;;2.50;;
10114;SDS011;5097;43.260;27.812;2022-08-03T13:17:38;20.85;;;13.52;;
10114;SDS011;5097;43.260;27.812;2022-08-03T13:20:22;6.90;;;3.95;;
10114;SDS011;5097;43.260;27.812;2022-08-03T13:23:07;2.10;;;1.90;;
10114;SDS011;5097;43.260;27.812;2022-08-03T13:26:03;3.58;;;2.80;;
10114;SDS011;5097;43.260;27.812;2022-08-03T13:28:48;2.63;;;2.13;;
10114;SDS011;5097;43.260;27.812;2022-08-03T13:31:32;2.58;;;2.38;;
10114;SDS011;5097;43.260;27.812;2022-08-03T13:34:16;2.10;;;2.00;;
10114;SDS011;5097;43.260;27.812;2022-08-03T13:37:04;3.67;;;2.42;;
10114;SDS011;5097;43.260;27.812;2022-08-03T13:39:51;2.35;;;2.15;;
10114;SDS011;5097;43.260;27.812;2022-08-03T13:42:41;2.50;;;2.28;;
10114;SDS011;5097;43.260;27.812;2022-08-03T13:45:26;3.05;;;2.20;;
10114;SDS011;5097;43.260;27.812;2022-08-03T13:48:10;2.22;;;2.00;;
10114;SDS011;5097;43.260;27.812;2022-08-03T13:51:14;2.03;;;1.92;;
10114;SDS011;5097;43.260;27.812;2022-08-03T13:54:04;1.90;;;1.80;;
10114;SDS011;5097;43.260;27.812;2022-08-03T13:56:48;1.90;;;1.55;;
10114;SDS011;5097;43.260;27.812;2022-08-03T13:59:34;1.95;;;1.80;;
10114;SDS011;5097;43.260;27.812;2022-08-03T14:02:19;1.75;;;1.65;;
10114;SDS011;5097;43.260;27.812;2022-08-03T14:05:03;1.70;;;1.60;;
10114;SDS011;5097;43.260;27.812;2022-08-03T14:07:49;1.40;;;1.30;;
10114;SDS011;5097;43.260;27.812;2022-08-03T14:10:39;1.80;;;1.70;;
10114;SDS011;5097;43.260;27.812;2022-08-03T14:13:25;1.67;;;1.58;;
10114;SDS011;5097;43.260;27.812;2022-08-03T14:16:10;1.75;;;1.55;;
10114;SDS011;5097;43.260;27.812;2022-08-03T14:18:59;2.00;;;1.65;;
10114;SDS011;5097;43.260;27.812;2022-08-03T14:21:44;1.77;;;1.67;;
10114;SDS011;5097;43.260;27.812;2022-08-03T14:24:47;4.15;;;1.90;;
10114;SDS011;5097;43.260;27.812;2022-08-03T14:27:32;3.33;;;1.60;;
10114;SDS011;5097;43.260;27.812;2022-08-03T14:30:16;1.70;;;1.58;;
10114;SDS011;5097;43.260;27.812;2022-08-03T14:33:00;2.00;;;1.80;;
10114;SDS011;5097;43.260;27.812;2022-08-03T14:35:45;2.28;;;2.00;;
10114;SDS011;5097;43.260;27.812;2022-08-03T14:38:29;1.60;;;1.50;;
10114;SDS011;5097;43.260;27.812;2022-08-03T14:41:13;1.90;;;1.80;;
10114;SDS011;5097;43.260;27.812;2022-08-03T14:44:01;2.03;;;1.75;;
10114;SDS011;5097;43.260;27.812;2022-08-03T14:46:45;2.15;;;2.05;;
10114;SDS011;5097;43.260;27.812;2022-08-03T14:49:29;1.55;;;1.45;;
10114;SDS011;5097;43.260;27.812;2022-08-03T14:52:34;1.95;;;1.77;;
10114;SDS011;5097;43.260;27.812;2022-08-03T14:55:18;2.40;;;1.50;;
10114;SDS011;5097;43.260;27.812;2022-08-03T14:58:02;1.75;;;1.65;;
10114;SDS011;5097;43.260;27.812;2022-08-03T15:01:02;1.77;;;1.60;;
10114;SDS011;5097;43.260;27.812;2022-08-03T15:04:06;3.42;;;1.55;;
10114;SDS011;5097;43.260;27.812;2022-08-03T15:06:49;1.85;;;1.75;;
10114;SDS011;5097;43.260;27.812;2022-08-03T15:09:35;2.50;;;2.00;;
10114;SDS011;5097;43.260;27.812;2022-08-03T15:12:19;1.88;;;1.70;;
10114;SDS011;5097;43.260;27.812;2022-08-03T15:15:04;2.55;;;1.83;;
10114;SDS011;5097;43.260;27.812;2022-08-03T15:17:48;1.75;;;1.65;;
10114;SDS011;5097;43.260;27.812;2022-08-03T15:20:41;3.03;;;1.90;;
10114;SDS011;5097;43.260;27.812;2022-08-03T15:23:28;1.67;;;1.58;;
10114;SDS011;5097;43.260;27.812;2022-08-03T15:26:13;2.88;;;1.77;;
10114;SDS011;5097;43.260;27.812;2022-08-03T15:29:17;2.30;;;2.10;;
10114;SDS011;5097;43.260;27.812;2022-08-03T15:32:21;2.00;;;1.90;;
10114;SDS011;5097;43.260;27.812;2022-08-03T15:35:05;2.08;;;1.92;;
10114;SDS011;5097;43.260;27.812;2022-08-03T15:37:49;1.77;;;1.67;;
10114;SDS011;5097;43.260;27.812;2022-08-03T15:40:33;2.20;;;2.10;;
10114;SDS011;5097;43.260;27.812;2022-08-03T15:43:18;2.63;;;2.05;;
10114;SDS011;5097;43.260;27.812;2022-08-03T15:46:03;3.88;;;2.13;;
10114;SDS011;5097;43.260;27.812;2022-08-03T15:49:07;2.05;;;1.95;;
10114;SDS011;5097;43.260;27.812;2022-08-03T15:51:50;1.30;;;1.30;;
10114;SDS011;5097;43.260;27.812;2022-08-03T15:54:34;1.80;;;1.70;;
10114;SDS011;5097;43.260;27.812;2022-08-03T15:57:18;2.33;;;2.13;;
10114;SDS011;5097;43.260;27.812;2022-08-03T16:00:05;2.15;;;1.95;;
10114;SDS011;5097;43.260;27.812;2022-08-03T16:02:50;2.28;;;1.92;;
10114;SDS011;5097;43.260;27.812;2022-08-03T16:05:37;3.13;;;2.45;;
10114;SDS011;5097;43.260;27.812;2022-08-03T16:08:22;2.15;;;2.00;;
10114;SDS011;5097;43.260;27.812;2022-08-03T16:11:06;3.25;;;2.38;;
10114;SDS011;5097;43.260;27.812;2022-08-03T16:13:50;2.67;;;2.10;;
10114;SDS011;5097;43.260;27.812;2022-08-03T16:16:55;1.83;;;1.73;;
10114;SDS011;5097;43.260;27.812;2022-08-03T16:19:39;2.38;;;2.00;;
10114;SDS011;5097;43.260;27.812;2022-08-03T16:22:23;2.80;;;1.65;;
10114;SDS011;5097;43.260;27.812;2022-08-03T16:25:08;2.53;;;1.95;;
10114;SDS011;5097;43.260;27.812;2022-08-03T16:27:57;2.08;;;1.90;;
10114;SDS011;5097;43.260;27.812;2022-08-03T16:30:53;2.30;;;2.20;;
10114;SDS011;5097;43.260;27.812;2022-08-03T16:33:39;1.95;;;1.85;;
10114;SDS011;5097;43.260;27.812;2022-08-03T16:36:23;2.22;;;1.90;;
10114;SDS011;5097;43.260;27.812;2022-08-03T16:39:15;2.17;;;2.05;;
10114;SDS011;5097;43.260;27.812;2022-08-03T16:41:59;1.83;;;1.70;;
10114;SDS011;5097;43.260;27.812;2022-08-03T16:44:44;2.78;;;1.75;;
10114;SDS011;5097;43.260;27.812;2022-08-03T16:47:28;2.58;;;1.67;;
10114;SDS011;5097;43.260;27.812;2022-08-03T16:50:13;2.42;;;1.90;;
10114;SDS011;5097;43.260;27.812;2022-08-03T16:53:02;2.10;;;1.92;;
10114;SDS011;5097;43.260;27.812;2022-08-03T16:55:50;2.03;;;1.92;;
10114;SDS011;5097;43.260;27.812;2022-08-03T16:58:35;1.80;;;1.70;;
10114;SDS011;5097;43.260;27.812;2022-08-03T17:01:23;2.00;;;1.80;;